createdAt,value
2017-07-24T06:04:53.611Z,1828
2017-07-24T06:05:38.990Z,1664
2017-07-24T06:06:38.994Z,1576
2017-07-24T06:07:38.680Z,1608
2017-07-24T06:08:38.678Z,1640
2017-07-24T06:09:38.651Z,1672
2017-07-24T06:10:38.646Z,1712
2017-07-24T06:11:38.931Z,1736
2017-07-24T06:12:38.929Z,1700
2017-07-24T06:13:38.929Z,1640
2017-07-24T06:14:38.909Z,1548
2017-07-24T06:15:38.314Z,1520
2017-07-24T06:16:38.901Z,1612
2017-07-24T06:17:38.589Z,1744
2017-07-24T06:18:38.874Z,1916
2017-07-24T06:19:38.871Z,2060
2017-07-24T06:20:38.856Z,2160
2017-07-24T06:21:38.848Z,2200
2017-07-24T06:22:38.840Z,2188
2017-07-24T06:23:38.824Z,2144
2017-07-24T06:24:38.803Z,2052
2017-07-24T06:25:38.802Z,1940
2017-07-24T06:26:38.783Z,1812
2017-07-24T06:27:38.782Z,1704
2017-07-24T06:28:38.768Z,1632
2017-07-24T06:29:38.753Z,1548
2017-07-24T06:30:38.747Z,1456
2017-07-24T06:31:38.722Z,1372
2017-07-24T06:32:38.726Z,1448
2017-07-24T06:33:38.704Z,1516
2017-07-24T06:34:38.399Z,1664
2017-07-24T06:35:38.698Z,1888
2017-07-24T06:36:38.676Z,1984
2017-07-24T06:37:38.670Z,1816
2017-07-24T06:38:38.659Z,1852
2017-07-24T06:39:38.633Z,1788
2017-07-24T06:40:38.338Z,1776
2017-07-24T06:41:38.624Z,1972
2017-07-24T06:42:38.314Z,1980
2017-07-24T06:43:38.621Z,1672
2017-07-24T06:44:38.598Z,1472
2017-07-24T06:45:38.588Z,1484
2017-07-24T06:46:38.594Z,1572
2017-07-24T06:47:38.262Z,1792
2017-07-24T06:48:38.563Z,2044
2017-07-24T06:49:38.553Z,2124
2017-07-24T06:50:38.536Z,2224
2017-07-24T06:51:38.526Z,2264
2017-07-24T06:52:38.517Z,2268
2017-07-24T06:53:38.514Z,2576
2017-07-24T06:54:38.484Z,3200
2017-07-24T06:55:38.499Z,3612
2017-07-24T06:56:38.477Z,3640
2017-07-24T06:57:38.450Z,3660
2017-07-24T06:58:38.456Z,3572
2017-07-24T06:59:38.432Z,3324
2017-07-24T07:00:38.410Z,3168
2017-07-24T07:01:38.417Z,3364
2017-07-24T07:02:38.413Z,3416
2017-07-24T07:03:38.386Z,3520
2017-07-24T07:04:38.379Z,3644
2017-07-24T07:05:38.060Z,3676
2017-07-24T07:06:38.355Z,3704
2017-07-24T07:07:38.350Z,3472
2017-07-24T07:08:38.340Z,3232
2017-07-24T07:09:38.337Z,3460
2017-07-24T07:10:38.317Z,4164
2017-07-24T07:11:38.319Z,5352
2017-07-24T07:12:37.985Z,5948
2017-07-24T07:13:37.373Z,6300
2017-07-24T07:14:38.269Z,6724
2017-07-24T07:15:38.245Z,6336
2017-07-24T07:16:38.244Z,5816
2017-07-24T07:17:38.232Z,5944
2017-07-24T07:18:37.924Z,6120
2017-07-24T07:19:37.910Z,6540
2017-07-24T07:20:38.198Z,6628
2017-07-24T07:21:37.882Z,6808
2017-07-24T07:22:38.179Z,6912
2017-07-24T07:23:37.852Z,7164
2017-07-24T07:24:38.161Z,7460
2017-07-24T07:25:38.131Z,7320
2017-07-24T07:26:38.123Z,7564
2017-07-24T07:27:37.820Z,8128
2017-07-24T07:28:38.111Z,8332
2017-07-24T07:29:38.093Z,8624
2017-07-24T07:30:38.082Z,8152
2017-07-24T07:31:38.078Z,7372
2017-07-24T07:32:38.062Z,6812
2017-07-24T07:33:38.059Z,6220
2017-07-24T07:34:38.037Z,5776
2017-07-24T07:35:38.038Z,5668
2017-07-24T07:36:38.014Z,5652
2017-07-24T07:37:37.693Z,5304
2017-07-24T07:38:37.997Z,4960
2017-07-24T07:39:37.985Z,4940
2017-07-24T07:40:37.975Z,5104
2017-07-24T07:41:37.663Z,5212
2017-07-24T07:42:37.657Z,5340
2017-07-24T07:43:37.933Z,5284
2017-07-24T07:44:37.922Z,5116
2017-07-24T07:45:37.605Z,5040
2017-07-24T07:46:37.606Z,5052
2017-07-24T07:47:37.889Z,4908
2017-07-24T07:48:37.586Z,5044
2017-07-24T07:49:37.881Z,5092
2017-07-24T07:50:37.857Z,5148
2017-07-24T07:51:37.857Z,5320
2017-07-24T07:52:37.839Z,5524
2017-07-24T07:53:37.827Z,5756
2017-07-24T07:54:37.820Z,6236
2017-07-24T07:55:37.508Z,6852
2017-07-24T07:56:37.816Z,8172
2017-07-24T07:57:37.784Z,7880
2017-07-24T07:58:37.791Z,8036
2017-07-24T07:59:37.168Z,8256
2017-07-24T08:00:37.753Z,8384
2017-07-24T08:01:37.746Z,8112
2017-07-24T08:02:37.731Z,7872
2017-07-24T08:03:37.413Z,7516
2017-07-24T08:04:37.409Z,7712
2017-07-24T08:05:37.407Z,6620
2017-07-24T08:06:37.378Z,7188
2017-07-24T08:07:37.374Z,6576
2017-07-24T08:08:37.665Z,6304
2017-07-24T08:09:37.655Z,6668
2017-07-24T08:10:37.627Z,6336
2017-07-24T08:11:37.621Z,6708
2017-07-24T08:12:37.627Z,6724
2017-07-24T08:13:37.290Z,8348
2017-07-24T08:14:37.573Z,8280
2017-07-24T08:15:37.273Z,7900
2017-07-24T08:16:37.250Z,8264
2017-07-24T08:17:37.232Z,9428
2017-07-24T08:18:37.235Z,7840
2017-07-24T08:19:37.208Z,8684
2017-07-24T08:20:37.490Z,9168
2017-07-24T08:21:37.184Z,10188
2017-07-24T08:22:37.167Z,11112
2017-07-24T08:23:37.175Z,12024
2017-07-24T08:24:37.161Z,13176
2017-07-24T08:25:37.117Z,11440
2017-07-24T08:26:37.394Z,9680
2017-07-24T08:27:37.091Z,8772
2017-07-24T08:28:37.081Z,8992
2017-07-24T08:29:37.381Z,8484
2017-07-24T08:30:37.054Z,7904
2017-07-24T08:31:37.355Z,8236
2017-07-24T08:32:37.328Z,8456
2017-07-24T08:33:37.306Z,8540
2017-07-24T08:34:37.290Z,9112
2017-07-24T08:35:37.284Z,9508
2017-07-24T08:36:36.964Z,8144
2017-07-24T08:37:37.262Z,6548
2017-07-24T08:38:36.932Z,6748
2017-07-24T08:39:37.219Z,6992
2017-07-24T08:40:37.219Z,7028
2017-07-24T08:41:37.193Z,7068
2017-07-24T08:42:37.197Z,7096
2017-07-24T08:43:36.868Z,8660
2017-07-24T08:44:37.154Z,9636
2017-07-24T08:45:37.133Z,10452
2017-07-24T08:46:36.827Z,12036
2017-07-24T08:47:37.115Z,14244
2017-07-24T08:48:37.091Z,16812
2017-07-24T08:49:37.081Z,15664
2017-07-24T08:50:37.075Z,13716
2017-07-24T08:51:37.055Z,11012
2017-07-24T08:52:37.049Z,11468
2017-07-24T08:53:36.724Z,11544
2017-07-24T08:54:36.720Z,10644
2017-07-24T08:55:36.993Z,10032
2017-07-24T08:56:36.992Z,9868
2017-07-24T08:57:36.967Z,10464
2017-07-24T08:58:36.648Z,10664
2017-07-24T08:59:36.944Z,11092
2017-07-24T09:00:36.625Z,10720
2017-07-24T09:01:36.916Z,9452
2017-07-24T09:02:36.915Z,8624
2017-07-24T09:03:36.575Z,9168
2017-07-24T09:04:36.573Z,7612
2017-07-24T09:05:36.856Z,7276
2017-07-24T09:06:36.535Z,7188
2017-07-24T09:07:36.522Z,6760
2017-07-24T09:08:36.514Z,6808
2017-07-24T09:09:36.492Z,7348
2017-07-24T09:10:36.778Z,6788
2017-07-24T09:11:36.758Z,7472
2017-07-24T09:12:36.437Z,6560
2017-07-24T09:13:36.745Z,6600
2017-07-24T09:14:36.419Z,6216
2017-07-24T09:15:36.400Z,6576
2017-07-24T09:16:36.693Z,6316
2017-07-24T09:17:36.363Z,6480
2017-07-24T09:18:36.356Z,5900
2017-07-24T09:19:36.648Z,5756
2017-07-24T09:20:36.326Z,6248
2017-07-24T09:21:36.303Z,6376
2017-07-24T09:22:35.990Z,6688
2017-07-24T09:23:35.974Z,7524
2017-07-24T09:24:35.951Z,7592
2017-07-24T09:25:36.565Z,7688
2017-07-24T09:26:36.247Z,7564
2017-07-24T09:27:36.535Z,8344
2017-07-24T09:28:36.503Z,8328
2017-07-24T09:29:36.493Z,7800
2017-07-24T09:30:36.175Z,7284
2017-07-24T09:31:36.175Z,6824
2017-07-24T09:32:36.158Z,6964
2017-07-24T09:33:36.122Z,8316
2017-07-24T09:34:35.815Z,8292
2017-07-24T09:35:36.410Z,8556
2017-07-24T09:36:36.391Z,9148
2017-07-24T09:37:36.367Z,9388
2017-07-24T09:38:36.053Z,9224
2017-07-24T09:39:36.347Z,11440
2017-07-24T09:40:36.318Z,12828
2017-07-24T09:41:36.036Z,11168
2017-07-24T09:42:36.305Z,11380
2017-07-24T09:43:35.980Z,10356
2017-07-24T09:44:36.279Z,8804
2017-07-24T09:45:36.264Z,7244
2017-07-24T09:46:36.242Z,7100
2017-07-24T09:47:35.920Z,6692
2017-07-24T09:48:36.209Z,6264
2017-07-24T09:49:36.202Z,5760
2017-07-24T09:50:36.177Z,5668
2017-07-24T09:51:35.872Z,5672
2017-07-24T09:52:36.171Z,5720
2017-07-24T09:53:35.833Z,6068
2017-07-24T09:54:35.835Z,6372
2017-07-24T09:55:35.502Z,6052
2017-07-24T09:56:35.785Z,6384
2017-07-24T09:57:35.776Z,6440
2017-07-24T09:58:35.761Z,6344
2017-07-24T09:59:36.043Z,6980
2017-07-24T10:00:35.731Z,7880
2017-07-24T10:01:36.029Z,9704
2017-07-24T10:02:35.703Z,11316
2017-07-24T10:03:35.696Z,12532
2017-07-24T10:04:35.670Z,12512
2017-07-24T10:05:35.978Z,13108
2017-07-24T10:06:35.952Z,13740
2017-07-24T10:07:35.640Z,13600
2017-07-24T10:08:35.928Z,13680
2017-07-24T10:09:35.601Z,14296
2017-07-24T10:10:34.985Z,13636
2017-07-24T10:11:35.882Z,13996
2017-07-24T10:12:35.873Z,14160
2017-07-24T10:13:35.546Z,13828
2017-07-24T10:14:35.851Z,12776
2017-07-24T10:15:35.824Z,11336
2017-07-24T10:16:35.496Z,10800
2017-07-24T10:17:35.182Z,10048
2017-07-24T10:18:35.785Z,10832
2017-07-24T10:19:35.779Z,10404
2017-07-24T10:20:35.439Z,10248
2017-07-24T10:21:35.423Z,10580
2017-07-24T10:22:35.427Z,10840
2017-07-24T10:23:35.405Z,10360
2017-07-24T10:24:35.390Z,9168
2017-07-24T10:25:35.377Z,9180
2017-07-24T10:26:35.061Z,9040
2017-07-24T10:27:35.664Z,8884
2017-07-24T10:28:35.340Z,8404
2017-07-24T10:29:35.309Z,7916
2017-07-24T10:30:35.311Z,8896
2017-07-24T10:31:35.290Z,9100
2017-07-24T10:32:35.273Z,10244
2017-07-24T10:33:35.256Z,9924
2017-07-24T10:34:35.253Z,9188
2017-07-24T10:35:35.537Z,9560
2017-07-24T10:36:35.220Z,11228
2017-07-24T10:37:34.900Z,11628
2017-07-24T10:38:35.485Z,13284
2017-07-24T10:39:35.483Z,13884
2017-07-24T10:40:35.469Z,13556
2017-07-24T10:41:35.450Z,14500
2017-07-24T10:42:35.448Z,14636
2017-07-24T10:43:35.423Z,14536
2017-07-24T10:44:35.418Z,15784
2017-07-24T10:45:35.396Z,15288
2017-07-24T10:46:35.381Z,15996
2017-07-24T10:47:35.377Z,14600
2017-07-24T10:48:35.369Z,14480
2017-07-24T10:49:35.355Z,14160
2017-07-24T10:50:35.338Z,13808
2017-07-24T10:51:35.309Z,14380
2017-07-24T10:52:35.301Z,13264
2017-07-24T10:53:35.298Z,12628
2017-07-24T10:54:34.966Z,12128
2017-07-24T10:55:35.249Z,12184
2017-07-24T10:56:35.272Z,11172
2017-07-24T10:57:34.935Z,11456
2017-07-24T10:58:34.904Z,11748
2017-07-24T10:59:34.903Z,11960
2017-07-24T11:00:35.198Z,10932
2017-07-24T11:01:35.163Z,10164
2017-07-24T11:02:35.162Z,11040
2017-07-24T11:03:35.165Z,10524
2017-07-24T11:04:35.185Z,11108
2017-07-24T11:05:35.132Z,11088
2017-07-24T11:06:35.099Z,10952
2017-07-24T11:07:35.111Z,10708
2017-07-24T11:08:35.065Z,9468
2017-07-24T11:09:35.083Z,10808
2017-07-24T11:10:34.760Z,11088
2017-07-24T11:11:35.044Z,10836
2017-07-24T11:12:35.028Z,10576
2017-07-24T11:13:35.018Z,9976
2017-07-24T11:14:34.695Z,10416
2017-07-24T11:15:34.993Z,10172
2017-07-24T11:16:34.975Z,9432
2017-07-24T11:17:34.972Z,10192
2017-07-24T11:18:34.948Z,9968
2017-07-24T11:19:34.936Z,10808
2017-07-24T11:20:34.907Z,11476
2017-07-24T11:21:34.906Z,11020
2017-07-24T11:22:34.904Z,11416
2017-07-24T11:23:34.871Z,12052
2017-07-24T11:24:34.570Z,11976
2017-07-24T11:25:34.858Z,10700
2017-07-24T11:26:34.837Z,11108
2017-07-24T11:27:34.837Z,10484
2017-07-24T11:28:34.811Z,9792
2017-07-24T11:29:34.490Z,9232
2017-07-24T11:30:34.780Z,8100
2017-07-24T11:31:34.771Z,8104
2017-07-24T11:32:34.757Z,8340
2017-07-24T11:33:34.738Z,8300
2017-07-24T11:34:34.739Z,7820
2017-07-24T11:35:34.409Z,7656
2017-07-24T11:36:34.400Z,7560
2017-07-24T11:37:34.382Z,8360
2017-07-24T11:38:34.676Z,9284
2017-07-24T11:39:34.355Z,11744
2017-07-24T11:40:34.340Z,12572
2017-07-24T11:41:34.331Z,12776
2017-07-24T11:42:34.621Z,12988
2017-07-24T11:43:34.306Z,11368
2017-07-24T11:44:34.595Z,11340
2017-07-24T11:45:34.587Z,10368
2017-07-24T11:46:33.959Z,8864
2017-07-24T11:47:34.542Z,8460
2017-07-24T11:48:34.545Z,8744
2017-07-24T11:49:34.530Z,9864
2017-07-24T11:50:34.508Z,9228
2017-07-24T11:51:34.201Z,9456
2017-07-24T11:52:34.486Z,9220
2017-07-24T11:53:34.463Z,9756
2017-07-24T11:54:34.472Z,9108
2017-07-24T11:55:34.449Z,8300
2017-07-24T11:56:34.432Z,8528
2017-07-24T11:57:34.425Z,9356
2017-07-24T11:58:34.405Z,9944
2017-07-24T11:59:34.381Z,9680
2017-07-24T12:00:34.379Z,8188
2017-07-24T12:01:34.363Z,8060
2017-07-24T12:02:34.345Z,8616
2017-07-24T12:03:34.327Z,9456
2017-07-24T12:04:34.333Z,10288
2017-07-24T12:05:34.311Z,10720
2017-07-24T12:06:34.297Z,10416
2017-07-24T12:07:33.980Z,10540
2017-07-24T12:08:34.270Z,10888
2017-07-24T12:09:34.245Z,10912
2017-07-24T12:10:34.247Z,10744
2017-07-24T12:11:34.242Z,11080
2017-07-24T12:12:34.220Z,12928
2017-07-24T12:13:34.199Z,12620
2017-07-24T12:14:34.181Z,12368
2017-07-24T12:15:34.180Z,12796
2017-07-24T12:16:33.860Z,13224
2017-07-24T12:17:34.149Z,12912
2017-07-24T12:18:34.136Z,12940
2017-07-24T12:19:33.818Z,12992
2017-07-24T12:20:34.099Z,13252
2017-07-24T12:21:33.193Z,13820
2017-07-24T12:22:34.098Z,13936
2017-07-24T12:23:34.078Z,14276
2017-07-24T12:24:34.066Z,14084
2017-07-24T12:25:33.749Z,15704
2017-07-24T12:26:33.724Z,15168
2017-07-24T12:27:33.404Z,12848
2017-07-24T12:28:34.003Z,11824
2017-07-24T12:29:33.994Z,10504
2017-07-24T12:30:33.976Z,10448
2017-07-24T12:31:33.963Z,11548
2017-07-24T12:32:33.960Z,14380
2017-07-24T12:33:33.933Z,12820
2017-07-24T12:34:33.941Z,10484
2017-07-24T12:35:33.610Z,9504
2017-07-24T12:36:33.591Z,10612
2017-07-24T12:37:33.889Z,10804
2017-07-24T12:38:33.567Z,13360
2017-07-24T12:39:33.259Z,15228
2017-07-24T12:40:33.851Z,15552
2017-07-24T12:41:33.823Z,12528
2017-07-24T12:42:33.811Z,12864
2017-07-24T12:43:33.790Z,10160
2017-07-24T12:44:33.486Z,9668
2017-07-24T12:45:33.772Z,9408
2017-07-24T12:46:33.766Z,9624
2017-07-24T12:47:33.751Z,9764
2017-07-24T12:48:33.730Z,9396
2017-07-24T12:49:33.708Z,8964
2017-07-24T12:50:33.696Z,8260
2017-07-24T12:51:33.693Z,7804
2017-07-24T12:52:33.079Z,7784
2017-07-24T12:53:33.367Z,7260
2017-07-24T12:54:33.344Z,7060
2017-07-24T12:55:33.330Z,6116
2017-07-24T12:56:33.624Z,6212
2017-07-24T12:57:33.604Z,5620
2017-07-24T12:58:33.311Z,5404
2017-07-24T12:59:33.273Z,5708
2017-07-24T13:00:33.265Z,5948
2017-07-24T13:01:33.558Z,5632
2017-07-24T13:02:33.532Z,6176
2017-07-24T13:03:33.524Z,6032
2017-07-24T13:04:33.201Z,4896
2017-07-24T13:05:33.495Z,4840
2017-07-24T13:06:33.185Z,5036
2017-07-24T13:07:33.466Z,4824
2017-07-24T13:08:33.462Z,5072
2017-07-24T13:09:33.450Z,5472
2017-07-24T13:10:33.414Z,5640
2017-07-24T13:11:33.404Z,6184
2017-07-24T13:12:33.394Z,6320
2017-07-24T13:13:33.067Z,6784
2017-07-24T13:14:33.355Z,6484
2017-07-24T13:15:33.348Z,5992
2017-07-24T13:16:33.338Z,5556
2017-07-24T13:17:33.327Z,6012
2017-07-24T13:18:33.009Z,7180
2017-07-24T13:19:33.285Z,7324
2017-07-24T13:20:33.283Z,6784
2017-07-24T13:21:32.659Z,7132
2017-07-24T13:22:33.145Z,6732
2017-07-24T13:23:32.934Z,6340
2017-07-24T13:24:32.915Z,6596
2017-07-24T13:25:33.196Z,6096
2017-07-24T13:26:33.202Z,6728
2017-07-24T13:27:33.166Z,7396
2017-07-24T13:28:32.866Z,6412
2017-07-24T13:29:33.146Z,6084
2017-07-24T13:30:32.814Z,6280
2017-07-24T13:31:33.105Z,7132
2017-07-24T13:32:33.108Z,6448
2017-07-24T13:33:33.088Z,6476
2017-07-24T13:34:33.082Z,7168
2017-07-24T13:35:32.768Z,7328
2017-07-24T13:36:33.029Z,6524
2017-07-24T13:37:33.028Z,6428
2017-07-24T13:38:33.012Z,6584
2017-07-24T13:39:33.003Z,6856
2017-07-24T13:40:32.979Z,7312
2017-07-24T13:41:32.965Z,7816
2017-07-24T13:42:32.950Z,8552
2017-07-24T13:43:32.935Z,8380
2017-07-24T13:44:32.921Z,9656
2017-07-24T13:45:32.604Z,9704
2017-07-24T13:46:32.588Z,8648
2017-07-24T13:47:32.884Z,7936
2017-07-24T13:48:32.876Z,7220
2017-07-24T13:49:32.854Z,8416
2017-07-24T13:50:32.826Z,8640
2017-07-24T13:51:32.827Z,8940
2017-07-24T13:52:32.805Z,8780
2017-07-24T13:53:32.486Z,8724
2017-07-24T13:54:32.777Z,8264
2017-07-24T13:55:32.472Z,8892
2017-07-24T13:56:32.767Z,8372
2017-07-24T13:57:32.734Z,8824
2017-07-24T13:58:32.716Z,8924
2017-07-24T13:59:32.709Z,8504
2017-07-24T14:00:32.700Z,8052
2017-07-24T14:01:32.369Z,8952
2017-07-24T14:02:32.651Z,9084
2017-07-24T14:03:32.339Z,8792
2017-07-24T14:04:32.650Z,8492
2017-07-24T14:05:32.023Z,8556
2017-07-24T14:06:32.614Z,8464
2017-07-24T14:07:32.581Z,8736
2017-07-24T14:08:32.568Z,11276
2017-07-24T14:09:32.266Z,11108
2017-07-24T14:10:32.535Z,8976
2017-07-24T14:11:32.533Z,7468
2017-07-24T14:12:32.520Z,6988
2017-07-24T14:13:32.208Z,10036
2017-07-24T14:14:31.882Z,12484
2017-07-24T14:15:32.469Z,10244
2017-07-24T14:16:32.450Z,10992
2017-07-24T14:17:32.443Z,9280
2017-07-24T14:18:32.439Z,6808
2017-07-24T14:19:32.429Z,6296
2017-07-24T14:20:32.394Z,9592
2017-07-24T14:21:32.391Z,11516
2017-07-24T14:22:32.372Z,11068
2017-07-24T14:23:32.359Z,11068
2017-07-24T14:24:32.336Z,9872
2017-07-24T14:25:32.329Z,9088
2017-07-24T14:26:32.313Z,7968
2017-07-24T14:27:32.297Z,8420
2017-07-24T14:28:32.285Z,9844
2017-07-24T14:29:32.279Z,10384
2017-07-24T14:30:32.258Z,8932
2017-07-24T14:31:31.940Z,9900
2017-07-24T14:32:32.226Z,8108
2017-07-24T14:33:32.196Z,7308
2017-07-24T14:34:32.178Z,6968
2017-07-24T14:35:32.181Z,6716
2017-07-24T14:36:32.159Z,8616
2017-07-24T14:37:32.154Z,7176
2017-07-24T14:38:32.126Z,7236
2017-07-24T14:39:32.118Z,7636
2017-07-24T14:40:32.109Z,7012
2017-07-24T14:41:32.104Z,7816
2017-07-24T14:42:32.083Z,6692
2017-07-24T14:43:32.051Z,6676
2017-07-24T14:44:32.041Z,7436
2017-07-24T14:45:32.030Z,6944
2017-07-24T14:46:31.698Z,6808
2017-07-24T14:47:32.012Z,6308
2017-07-24T14:48:31.979Z,6864
2017-07-24T14:49:31.653Z,7504
2017-07-24T14:50:31.958Z,6856
2017-07-24T14:51:31.930Z,6764
2017-07-24T14:52:31.612Z,8012
2017-07-24T14:53:31.928Z,9288
2017-07-24T14:54:31.902Z,10376
2017-07-24T14:55:31.568Z,13484
2017-07-24T14:56:31.866Z,11344
2017-07-24T14:57:31.241Z,10372
2017-07-24T14:58:31.825Z,10336
2017-07-24T14:59:31.813Z,10152
2017-07-24T15:00:31.801Z,8848
2017-07-24T15:01:31.778Z,9148
2017-07-24T15:02:31.760Z,9416
2017-07-24T15:03:31.448Z,10324
2017-07-24T15:04:31.731Z,10204
2017-07-24T15:05:31.711Z,10136
2017-07-24T15:06:31.701Z,11128
2017-07-24T15:07:31.394Z,8948
2017-07-24T15:08:31.370Z,13716
2017-07-24T15:09:31.650Z,11012
2017-07-24T15:10:31.645Z,11072
2017-07-24T15:11:31.314Z,9752
2017-07-24T15:12:31.314Z,12028
2017-07-24T15:13:31.286Z,13204
2017-07-24T15:14:31.276Z,13344
2017-07-24T15:15:31.254Z,12596
2017-07-24T15:16:31.542Z,12388
2017-07-24T15:17:31.528Z,11580
2017-07-24T15:18:31.512Z,9332
2017-07-24T15:19:31.496Z,8392
2017-07-24T15:20:31.502Z,7672
2017-07-24T15:21:31.479Z,8236
2017-07-24T15:22:31.442Z,8532
2017-07-24T15:23:31.433Z,7328
2017-07-24T15:24:31.409Z,7028
2017-07-24T15:25:31.396Z,6768
2017-07-24T15:26:31.082Z,6760
2017-07-24T15:27:31.365Z,7692
2017-07-24T15:28:31.360Z,7440
2017-07-24T15:29:31.355Z,9408
2017-07-24T15:30:31.336Z,10484
2017-07-24T15:31:31.314Z,9036
2017-07-24T15:32:30.996Z,7236
2017-07-24T15:33:30.964Z,7700
2017-07-24T15:34:31.263Z,7164
2017-07-24T15:35:31.239Z,8008
2017-07-24T15:36:31.218Z,9696
2017-07-24T15:37:31.218Z,9416
2017-07-24T15:38:31.183Z,11492
2017-07-24T15:39:31.183Z,12852
2017-07-24T15:40:31.152Z,11564
2017-07-24T15:41:31.142Z,9844
2017-07-24T15:42:31.135Z,8792
2017-07-24T15:43:31.117Z,8244
2017-07-24T15:44:31.121Z,7440
2017-07-24T15:45:31.087Z,8096
2017-07-24T15:46:31.062Z,5572
2017-07-24T15:47:31.062Z,5120
2017-07-24T15:48:30.717Z,6372
2017-07-24T15:49:31.031Z,5984
2017-07-24T15:50:30.989Z,7332
2017-07-24T15:51:30.982Z,7556
2017-07-24T15:52:30.672Z,9564
2017-07-24T15:53:30.646Z,7808
2017-07-24T15:54:30.639Z,9036
2017-07-24T15:55:30.620Z,8676
2017-07-24T15:56:30.607Z,9208
2017-07-24T15:57:30.600Z,11656
2017-07-24T15:58:30.870Z,11552
2017-07-24T15:59:30.566Z,14988
2017-07-24T16:00:30.563Z,12844
2017-07-24T16:01:30.829Z,9808
2017-07-24T16:02:30.516Z,8696
2017-07-24T16:03:30.805Z,7968
2017-07-24T16:04:30.775Z,13068
2017-07-24T16:05:30.779Z,14752
2017-07-24T16:06:30.451Z,8036
2017-07-24T16:07:30.755Z,8368
2017-07-24T16:08:30.928Z,7056
2017-07-24T16:09:44.333Z,5536
2017-07-24T16:10:30.685Z,5340
2017-07-24T16:11:30.671Z,5164
2017-07-24T16:12:30.052Z,4836
2017-07-24T16:13:30.650Z,4456
2017-07-24T16:14:30.329Z,4792
2017-07-24T16:15:30.603Z,4920
2017-07-24T16:16:30.612Z,4420
2017-07-24T16:17:30.308Z,3964
2017-07-24T16:18:30.259Z,5516
2017-07-24T16:19:30.563Z,4832
2017-07-24T16:20:30.526Z,5756
2017-07-24T16:21:30.222Z,5212
2017-07-24T16:22:30.509Z,5768
2017-07-24T16:23:30.173Z,5900
2017-07-24T16:24:30.474Z,8052
2017-07-24T16:25:30.457Z,5256
2017-07-24T16:26:30.426Z,5072
2017-07-24T16:27:30.425Z,4312
2017-07-24T16:28:30.101Z,6208
2017-07-24T16:29:29.781Z,8748
2017-07-24T16:30:30.378Z,5508
2017-07-24T16:31:30.357Z,6172
2017-07-24T16:32:30.368Z,8624
2017-07-24T16:33:30.320Z,7060
2017-07-24T16:34:30.302Z,5396
2017-07-24T16:35:30.282Z,5592
2017-07-24T16:36:30.285Z,5200
2017-07-24T16:37:30.465Z,5252
2017-07-24T16:38:30.246Z,5860
2017-07-24T16:39:29.913Z,5992
2017-07-24T16:40:30.209Z,7048
2017-07-24T16:41:30.202Z,8396
2017-07-24T16:42:30.388Z,8716
2017-07-24T16:43:43.805Z,7320
2017-07-24T16:44:30.133Z,5252
2017-07-24T16:45:30.144Z,4264
2017-07-24T16:46:29.818Z,3968
2017-07-24T16:47:30.096Z,3340
2017-07-24T16:48:29.793Z,3776
2017-07-24T16:49:29.770Z,3392
2017-07-24T16:50:30.049Z,3572
2017-07-24T16:51:30.035Z,3720
2017-07-24T16:52:30.012Z,3484
2017-07-24T16:53:30.036Z,3724
2017-07-24T16:54:29.987Z,4632
2017-07-24T16:55:29.977Z,5444
2017-07-24T16:56:29.970Z,6036
2017-07-24T16:57:29.938Z,4796
2017-07-24T16:58:29.927Z,4116
2017-07-24T16:59:29.923Z,3788
2017-07-24T17:00:29.603Z,3316
2017-07-24T17:01:29.878Z,3376
2017-07-24T17:02:29.591Z,4116
2017-07-24T17:03:29.853Z,3840
2017-07-24T17:04:29.822Z,2812
2017-07-24T17:05:29.811Z,2472
2017-07-24T17:06:29.822Z,2724
2017-07-24T17:07:29.791Z,2768
2017-07-24T17:08:29.761Z,2696
2017-07-24T17:09:29.765Z,3172
2017-07-24T17:10:29.762Z,3844
2017-07-24T17:11:29.726Z,3756
2017-07-24T17:12:29.715Z,3292
2017-07-24T17:13:29.697Z,3788
2017-07-24T17:14:29.369Z,4104
2017-07-24T17:15:29.664Z,3332
2017-07-24T17:16:29.847Z,2600
2017-07-24T17:17:29.516Z,2376
2017-07-24T17:18:29.613Z,2636
2017-07-24T17:19:43.594Z,2672
2017-07-24T17:20:29.589Z,2012
2017-07-24T17:21:29.565Z,2540
2017-07-24T17:22:29.560Z,2152
2017-07-24T17:23:29.534Z,1576
2017-07-24T17:24:29.216Z,1396
2017-07-24T17:25:29.206Z,1284
2017-07-24T17:26:29.191Z,1292
2017-07-24T17:27:29.470Z,1320
2017-07-24T17:28:29.471Z,1448
2017-07-24T17:29:29.440Z,1396
2017-07-24T17:30:29.148Z,1524
2017-07-24T17:31:29.102Z,1288
2017-07-24T17:32:28.787Z,1188
2017-07-24T17:33:29.384Z,1164
2017-07-24T17:34:29.059Z,1220
2017-07-24T17:35:28.733Z,1256
2017-07-24T17:36:29.038Z,1280
2017-07-24T17:37:29.325Z,1156
2017-07-24T17:38:28.690Z,1044
2017-07-24T17:39:29.297Z,992
2017-07-24T17:40:29.284Z,964
2017-07-24T17:41:29.252Z,1024
2017-07-24T17:42:29.250Z,928
2017-07-24T17:43:28.914Z,908
2017-07-24T17:44:29.211Z,964
2017-07-24T17:45:43.795Z,1056
2017-07-24T17:47:23.331Z,972
2017-07-24T17:47:33.137Z,944
2017-07-24T17:48:32.820Z,904
2017-07-24T17:49:33.119Z,976
2017-07-24T17:50:33.103Z,1140
2017-07-24T17:51:32.782Z,1120
2017-07-24T17:52:33.079Z,1032
2017-07-24T17:53:33.256Z,832
2017-07-24T17:54:33.035Z,716
2017-07-24T17:55:33.025Z,664
2017-07-24T17:56:33.007Z,724
2017-07-24T17:57:32.986Z,832
2017-07-24T17:58:32.975Z,776
2017-07-24T17:59:32.945Z,776
2017-07-24T18:00:32.951Z,816
2017-07-24T18:01:32.929Z,700
2017-07-24T18:02:32.915Z,712
2017-07-24T18:03:32.901Z,780
2017-07-24T18:04:32.889Z,800
2017-07-24T18:05:32.583Z,864
2017-07-24T18:06:32.561Z,832
2017-07-24T18:07:32.531Z,812
2017-07-24T18:08:33.033Z,752
2017-07-24T18:09:32.495Z,800
2017-07-24T18:10:32.788Z,832
2017-07-24T18:11:32.475Z,696
2017-07-24T18:12:32.966Z,628
2017-07-24T18:13:32.745Z,516
2017-07-24T18:14:46.331Z,540
2017-07-24T18:15:32.735Z,504
2017-07-24T18:16:32.708Z,512
2017-07-24T18:17:32.381Z,524
2017-07-24T18:18:32.879Z,472
2017-07-24T18:19:32.357Z,464
2017-07-24T18:20:32.634Z,436
2017-07-24T18:21:32.623Z,388
2017-07-24T18:22:32.614Z,388
2017-07-24T18:23:32.597Z,372
2017-07-24T18:24:32.588Z,296
2017-07-24T18:25:32.567Z,236
2017-07-24T18:26:32.544Z,224
2017-07-24T18:27:32.216Z,204
2017-07-24T18:28:32.503Z,196
2017-07-24T18:29:32.522Z,172
2017-07-24T18:30:32.478Z,148
2017-07-24T18:31:32.471Z,136
2017-07-24T18:32:32.472Z,156
2017-07-24T18:33:32.442Z,164
2017-07-24T18:34:32.414Z,184
2017-07-24T18:35:32.404Z,208
2017-07-24T18:36:32.387Z,184
2017-07-24T18:37:32.385Z,172
2017-07-24T18:38:32.360Z,180
2017-07-24T18:39:32.336Z,184
2017-07-24T18:40:32.027Z,156
2017-07-24T18:41:32.314Z,144
2017-07-24T18:42:32.291Z,128
2017-07-24T18:43:32.173Z,104
2017-07-24T18:44:32.271Z,100
2017-07-24T18:45:32.245Z,108
2017-07-24T18:46:32.229Z,108
2017-07-24T18:47:32.425Z,92
2017-07-24T18:48:45.834Z,76
2017-07-24T18:49:32.202Z,80
2017-07-24T18:50:32.171Z,76
2017-07-24T18:51:32.147Z,76
2017-07-24T18:52:32.028Z,68
2017-07-24T18:53:32.116Z,64
2017-07-24T18:54:31.792Z,68
2017-07-24T18:55:31.769Z,68
2017-07-24T18:56:32.264Z,68
2017-07-24T18:57:31.735Z,68
2017-07-24T18:58:31.741Z,48
2017-07-24T18:59:32.017Z,32
2017-07-24T19:00:31.997Z,36
2017-07-24T19:01:31.669Z,32
2017-07-24T19:02:31.964Z,28
2017-07-24T19:03:31.940Z,28
2017-07-24T19:04:31.935Z,24
2017-07-24T19:05:31.610Z,24
2017-07-24T19:06:31.597Z,24
2017-07-24T19:07:31.898Z,20
2017-07-24T19:08:31.873Z,16
2017-07-24T19:09:31.851Z,12
2017-07-24T19:10:31.832Z,12
2017-07-24T19:11:31.506Z,8
2017-07-24T19:12:31.799Z,12
2017-07-24T19:13:31.793Z,12
2017-07-24T19:14:31.759Z,8
2017-07-24T19:15:31.749Z,4
2017-07-24T19:16:31.429Z,8
2017-07-24T19:17:31.426Z,8
2017-07-24T19:18:31.707Z,8
2017-07-24T19:19:31.711Z,4
2017-07-24T19:20:31.670Z,4
2017-07-24T19:21:45.034Z,4